sensor_id;sensor_type;location;lat;lon;timestamp;temperature;humidity
44166;DHT22;30476;53.468;9.826;2023-09-19T00:00:17;18.70;99.90
44166;DHT22;30476;53.468;9.826;2023-09-19T00:02:46;18.70;99.90
44166;DHT22;30476;53.468;9.826;2023-09-19T00:05:13;18.70;99.90
44166;DHT22;30476;53.468;9.826;2023-09-19T00:07:39;18.60;99.90
44166;DHT22;30476;53.468;9.826;2023-09-19T00:10:06;18.60;99.90
44166;DHT22;30476;53.468;9.826;2023-09-19T00:12:35;18.60;99.90
44166;DHT22;30476;53.468;9.826;2023-09-19T00:15:01;18.60;99.90
44166;DHT22;30476;53.468;9.826;2023-09-19T00:17:30;18.60;99.90
44166;DHT22;30476;53.468;9.826;2023-09-19T00:19:57;18.60;99.90
44166;DHT22;30476;53.468;9.826;2023-09-19T00:22:23;18.60;99.90
44166;DHT22;30476;53.468;9.826;2023-09-19T00:24:51;18.60;99.90
44166;DHT22;30476;53.468;9.826;2023-09-19T00:27:17;18.60;99.90
44166;DHT22;30476;53.468;9.826;2023-09-19T00:29:44;18.70;99.90
44166;DHT22;30476;53.468;9.826;2023-09-19T00:32:10;18.60;99.90
44166;DHT22;30476;53.468;9.826;2023-09-19T00:34:35;18.60;99.90
44166;DHT22;30476;53.468;9.826;2023-09-19T00:37:01;18.60;99.90
44166;DHT22;30476;53.468;9.826;2023-09-19T00:39:27;18.70;99.90
44166;DHT22;30476;53.468;9.826;2023-09-19T00:41:57;18.60;99.90
44166;DHT22;30476;53.468;9.826;2023-09-19T00:44:23;18.70;99.90
44166;DHT22;30476;53.468;9.826;2023-09-19T00:46:49;18.70;99.90
44166;DHT22;30476;53.468;9.826;2023-09-19T00:49:16;18.60;99.90
44166;DHT22;30476;53.468;9.826;2023-09-19T00:51:42;18.60;99.90
44166;DHT22;30476;53.468;9.826;2023-09-19T00:54:13;18.70;99.90
44166;DHT22;30476;53.468;9.826;2023-09-19T00:56:44;18.70;99.90
44166;DHT22;30476;53.468;9.826;2023-09-19T00:59:10;18.60;99.90
44166;DHT22;30476;53.468;9.826;2023-09-19T01:01:37;18.60;99.90
44166;DHT22;30476;53.468;9.826;2023-09-19T01:04:06;18.60;99.90
44166;DHT22;30476;53.468;9.826;2023-09-19T01:06:32;18.60;99.90
44166;DHT22;30476;53.468;9.826;2023-09-19T01:08:58;18.60;99.90
44166;DHT22;30476;53.468;9.826;2023-09-19T01:11:33;18.70;99.90
44166;DHT22;30476;53.468;9.826;2023-09-19T01:17:29;18.60;99.90
44166;DHT22;30476;53.468;9.826;2023-09-19T01:20:17;18.70;99.90
44166;DHT22;30476;53.468;9.826;2023-09-19T01:23:00;18.70;99.90
44166;DHT22;30476;53.468;9.826;2023-09-19T01:30:52;18.70;99.90
44166;DHT22;30476;53.468;9.826;2023-09-19T01:33:23;18.70;99.90
44166;DHT22;30476;53.468;9.826;2023-09-19T01:35:49;18.70;99.90
44166;DHT22;30476;53.468;9.826;2023-09-19T01:38:16;18.80;99.90
44166;DHT22;30476;53.468;9.826;2023-09-19T01:40:43;18.60;99.90
44166;DHT22;30476;53.468;9.826;2023-09-19T01:43:27;18.70;99.90
44166;DHT22;30476;53.468;9.826;2023-09-19T01:46:15;18.70;99.90
44166;DHT22;30476;53.468;9.826;2023-09-19T01:51:56;18.70;99.90
44166;DHT22;30476;53.468;9.826;2023-09-19T01:54:33;18.70;99.90
44166;DHT22;30476;53.468;9.826;2023-09-19T01:59:48;18.70;99.90
44166;DHT22;30476;53.468;9.826;2023-09-19T02:02:17;18.60;99.90
44166;DHT22;30476;53.468;9.826;2023-09-19T02:04:43;18.60;99.90
44166;DHT22;30476;53.468;9.826;2023-09-19T02:07:10;18.60;99.90
44166;DHT22;30476;53.468;9.826;2023-09-19T02:09:35;18.60;99.90
44166;DHT22;30476;53.468;9.826;2023-09-19T02:12:04;18.60;99.90
44166;DHT22;30476;53.468;9.826;2023-09-19T02:14:30;18.60;99.90
44166;DHT22;30476;53.468;9.826;2023-09-19T02:16:56;18.60;99.90
44166;DHT22;30476;53.468;9.826;2023-09-19T02:19:22;18.50;99.90
44166;DHT22;30476;53.468;9.826;2023-09-19T02:21:47;18.50;99.90
44166;DHT22;30476;53.468;9.826;2023-09-19T02:24:15;18.50;99.90
44166;DHT22;30476;53.468;9.826;2023-09-19T02:26:41;18.40;99.90
44166;DHT22;30476;53.468;9.826;2023-09-19T02:29:07;18.40;99.90
44166;DHT22;30476;53.468;9.826;2023-09-19T02:31:32;18.40;99.90
44166;DHT22;30476;53.468;9.826;2023-09-19T02:33:59;18.30;99.90
44166;DHT22;30476;53.468;9.826;2023-09-19T02:36:26;18.30;99.90
44166;DHT22;30476;53.468;9.826;2023-09-19T02:38:51;18.30;99.90
44166;DHT22;30476;53.468;9.826;2023-09-19T02:41:17;18.40;99.90
44166;DHT22;30476;53.468;9.826;2023-09-19T02:43:43;18.30;99.90
44166;DHT22;30476;53.468;9.826;2023-09-19T02:46:09;18.30;99.90
44166;DHT22;30476;53.468;9.826;2023-09-19T02:48:34;18.30;99.90
44166;DHT22;30476;53.468;9.826;2023-09-19T02:51:01;18.30;99.90
44166;DHT22;30476;53.468;9.826;2023-09-19T02:53:29;18.30;99.90
44166;DHT22;30476;53.468;9.826;2023-09-19T02:55:56;18.20;99.90
44166;DHT22;30476;53.468;9.826;2023-09-19T02:58:22;18.20;99.90
44166;DHT22;30476;53.468;9.826;2023-09-19T03:00:49;18.20;99.90
44166;DHT22;30476;53.468;9.826;2023-09-19T03:03:17;18.20;99.90
44166;DHT22;30476;53.468;9.826;2023-09-19T03:05:43;18.20;99.90
44166;DHT22;30476;53.468;9.826;2023-09-19T03:08:13;18.20;99.90
44166;DHT22;30476;53.468;9.826;2023-09-19T03:10:42;18.20;99.90
44166;DHT22;30476;53.468;9.826;2023-09-19T03:13:08;18.20;99.90
44166;DHT22;30476;53.468;9.826;2023-09-19T03:15:35;18.20;99.90
44166;DHT22;30476;53.468;9.826;2023-09-19T03:18:04;18.20;99.90
44166;DHT22;30476;53.468;9.826;2023-09-19T03:20:31;18.20;99.90
44166;DHT22;30476;53.468;9.826;2023-09-19T03:22:57;18.20;99.90
44166;DHT22;30476;53.468;9.826;2023-09-19T03:25:23;18.10;99.90
44166;DHT22;30476;53.468;9.826;2023-09-19T03:27:50;18.00;99.90
44166;DHT22;30476;53.468;9.826;2023-09-19T03:30:15;18.00;99.90
44166;DHT22;30476;53.468;9.826;2023-09-19T03:32:46;18.00;99.90
44166;DHT22;30476;53.468;9.826;2023-09-19T03:35:12;17.90;99.90
44166;DHT22;30476;53.468;9.826;2023-09-19T03:37:41;17.90;99.90
44166;DHT22;30476;53.468;9.826;2023-09-19T03:40:08;17.90;99.90
44166;DHT22;30476;53.468;9.826;2023-09-19T03:42:38;17.90;99.90
44166;DHT22;30476;53.468;9.826;2023-09-19T03:45:05;17.90;99.90
44166;DHT22;30476;53.468;9.826;2023-09-19T03:47:31;17.80;99.90
44166;DHT22;30476;53.468;9.826;2023-09-19T03:49:57;17.80;99.90
44166;DHT22;30476;53.468;9.826;2023-09-19T03:52:23;17.80;99.90
44166;DHT22;30476;53.468;9.826;2023-09-19T03:54:48;17.80;99.90
44166;DHT22;30476;53.468;9.826;2023-09-19T03:57:14;17.70;99.90
44166;DHT22;30476;53.468;9.826;2023-09-19T03:59:42;17.60;99.90
44166;DHT22;30476;53.468;9.826;2023-09-19T04:02:08;17.60;99.90
44166;DHT22;30476;53.468;9.826;2023-09-19T04:04:38;17.60;99.90
44166;DHT22;30476;53.468;9.826;2023-09-19T04:07:04;17.50;99.90
44166;DHT22;30476;53.468;9.826;2023-09-19T04:09:30;17.50;99.90
44166;DHT22;30476;53.468;9.826;2023-09-19T04:11:56;17.40;99.90
44166;DHT22;30476;53.468;9.826;2023-09-19T04:14:22;17.40;99.90
44166;DHT22;30476;53.468;9.826;2023-09-19T04:16:47;17.40;99.90
44166;DHT22;30476;53.468;9.826;2023-09-19T04:19:13;17.40;99.90
44166;DHT22;30476;53.468;9.826;2023-09-19T04:21:40;17.30;99.90
44166;DHT22;30476;53.468;9.826;2023-09-19T04:24:06;17.30;99.90
44166;DHT22;30476;53.468;9.826;2023-09-19T04:26:32;17.30;99.90
44166;DHT22;30476;53.468;9.826;2023-09-19T04:28:58;17.20;99.90
44166;DHT22;30476;53.468;9.826;2023-09-19T04:31:24;17.30;99.90
44166;DHT22;30476;53.468;9.826;2023-09-19T04:33:51;17.20;99.90
44166;DHT22;30476;53.468;9.826;2023-09-19T04:36:17;17.20;99.90
44166;DHT22;30476;53.468;9.826;2023-09-19T04:38:42;17.10;99.90
44166;DHT22;30476;53.468;9.826;2023-09-19T04:41:08;17.10;99.90
44166;DHT22;30476;53.468;9.826;2023-09-19T04:43:34;17.10;99.90
44166;DHT22;30476;53.468;9.826;2023-09-19T04:46:00;17.10;99.90
44166;DHT22;30476;53.468;9.826;2023-09-19T04:48:26;17.00;99.90
44166;DHT22;30476;53.468;9.826;2023-09-19T04:50:51;17.00;99.90
44166;DHT22;30476;53.468;9.826;2023-09-19T04:53:18;17.00;99.90
44166;DHT22;30476;53.468;9.826;2023-09-19T04:55:50;16.90;99.90
44166;DHT22;30476;53.468;9.826;2023-09-19T04:58:16;16.90;99.90
44166;DHT22;30476;53.468;9.826;2023-09-19T05:00:43;16.90;99.90
44166;DHT22;30476;53.468;9.826;2023-09-19T05:03:09;16.80;99.90
44166;DHT22;30476;53.468;9.826;2023-09-19T05:05:34;16.70;99.90
44166;DHT22;30476;53.468;9.826;2023-09-19T05:08:00;16.70;99.90
44166;DHT22;30476;53.468;9.826;2023-09-19T05:10:31;16.70;99.90
44166;DHT22;30476;53.468;9.826;2023-09-19T05:12:57;16.70;99.90
44166;DHT22;30476;53.468;9.826;2023-09-19T05:15:23;16.70;99.90
44166;DHT22;30476;53.468;9.826;2023-09-19T05:17:50;16.70;99.90
44166;DHT22;30476;53.468;9.826;2023-09-19T05:20:17;16.70;99.90
44166;DHT22;30476;53.468;9.826;2023-09-19T05:23:10;16.70;99.90
44166;DHT22;30476;53.468;9.826;2023-09-19T05:25:39;16.70;99.90
44166;DHT22;30476;53.468;9.826;2023-09-19T05:28:06;16.60;99.90
44166;DHT22;30476;53.468;9.826;2023-09-19T05:30:32;16.60;99.90
44166;DHT22;30476;53.468;9.826;2023-09-19T05:32:59;16.60;99.90
44166;DHT22;30476;53.468;9.826;2023-09-19T05:35:25;16.60;99.90
44166;DHT22;30476;53.468;9.826;2023-09-19T05:37:52;16.60;99.90
44166;DHT22;30476;53.468;9.826;2023-09-19T05:40:18;16.60;99.90
44166;DHT22;30476;53.468;9.826;2023-09-19T05:42:45;16.60;99.90
44166;DHT22;30476;53.468;9.826;2023-09-19T05:45:11;16.60;99.90
44166;DHT22;30476;53.468;9.826;2023-09-19T05:47:39;16.50;99.90
44166;DHT22;30476;53.468;9.826;2023-09-19T05:50:06;16.50;99.90
44166;DHT22;30476;53.468;9.826;2023-09-19T05:52:33;16.50;99.90
44166;DHT22;30476;53.468;9.826;2023-09-19T05:54:59;16.50;99.90
44166;DHT22;30476;53.468;9.826;2023-09-19T05:57:25;16.50;99.90
44166;DHT22;30476;53.468;9.826;2023-09-19T05:59:51;16.50;99.90
44166;DHT22;30476;53.468;9.826;2023-09-19T06:02:17;16.50;99.90
44166;DHT22;30476;53.468;9.826;2023-09-19T06:04:44;16.50;99.90
44166;DHT22;30476;53.468;9.826;2023-09-19T06:07:09;16.50;99.90
44166;DHT22;30476;53.468;9.826;2023-09-19T06:09:37;16.50;99.90
44166;DHT22;30476;53.468;9.826;2023-09-19T06:12:03;16.50;99.90
44166;DHT22;30476;53.468;9.826;2023-09-19T06:14:29;16.60;99.90
44166;DHT22;30476;53.468;9.826;2023-09-19T06:16:55;16.60;99.90
44166;DHT22;30476;53.468;9.826;2023-09-19T06:19:20;16.60;99.90
44166;DHT22;30476;53.468;9.826;2023-09-19T06:21:48;16.70;99.90
44166;DHT22;30476;53.468;9.826;2023-09-19T06:24:14;16.70;99.90
44166;DHT22;30476;53.468;9.826;2023-09-19T06:26:40;16.80;99.90
44166;DHT22;30476;53.468;9.826;2023-09-19T06:29:06;16.80;99.90
44166;DHT22;30476;53.468;9.826;2023-09-19T06:31:33;16.80;99.90
44166;DHT22;30476;53.468;9.826;2023-09-19T06:33:59;16.80;99.90
44166;DHT22;30476;53.468;9.826;2023-09-19T06:36:25;16.80;99.90
44166;DHT22;30476;53.468;9.826;2023-09-19T06:38:51;16.90;99.90
44166;DHT22;30476;53.468;9.826;2023-09-19T06:41:17;16.90;99.90
44166;DHT22;30476;53.468;9.826;2023-09-19T06:43:43;16.90;99.90
44166;DHT22;30476;53.468;9.826;2023-09-19T06:46:09;16.90;99.90
44166;DHT22;30476;53.468;9.826;2023-09-19T06:48:35;17.00;99.90
44166;DHT22;30476;53.468;9.826;2023-09-19T06:51:01;16.90;99.90
44166;DHT22;30476;53.468;9.826;2023-09-19T06:53:31;17.00;99.90
44166;DHT22;30476;53.468;9.826;2023-09-19T06:55:58;17.00;99.90
44166;DHT22;30476;53.468;9.826;2023-09-19T06:58:23;17.00;99.90
44166;DHT22;30476;53.468;9.826;2023-09-19T07:00:49;17.00;99.90
44166;DHT22;30476;53.468;9.826;2023-09-19T07:03:19;17.10;99.90
44166;DHT22;30476;53.468;9.826;2023-09-19T07:05:49;17.10;99.90
44166;DHT22;30476;53.468;9.826;2023-09-19T07:08:15;17.20;99.90
44166;DHT22;30476;53.468;9.826;2023-09-19T07:10:42;17.20;99.90
44166;DHT22;30476;53.468;9.826;2023-09-19T07:13:14;17.30;99.90
44166;DHT22;30476;53.468;9.826;2023-09-19T07:15:42;17.30;99.90
44166;DHT22;30476;53.468;9.826;2023-09-19T07:18:13;17.30;99.90
44166;DHT22;30476;53.468;9.826;2023-09-19T07:20:40;17.30;99.90
44166;DHT22;30476;53.468;9.826;2023-09-19T07:23:21;17.30;99.90
44166;DHT22;30476;53.468;9.826;2023-09-19T07:25:48;17.40;99.90
44166;DHT22;30476;53.468;9.826;2023-09-19T07:28:15;17.40;99.90
44166;DHT22;30476;53.468;9.826;2023-09-19T07:30:41;17.30;99.90
44166;DHT22;30476;53.468;9.826;2023-09-19T07:33:07;17.40;99.90
44166;DHT22;30476;53.468;9.826;2023-09-19T07:35:37;17.40;99.90
44166;DHT22;30476;53.468;9.826;2023-09-19T07:38:06;17.50;99.90
44166;DHT22;30476;53.468;9.826;2023-09-19T07:40:32;17.50;99.90
44166;DHT22;30476;53.468;9.826;2023-09-19T07:42:58;17.50;99.90
44166;DHT22;30476;53.468;9.826;2023-09-19T07:45:30;17.50;99.90
44166;DHT22;30476;53.468;9.826;2023-09-19T07:47:57;17.50;99.90
44166;DHT22;30476;53.468;9.826;2023-09-19T07:50:23;17.60;99.90
44166;DHT22;30476;53.468;9.826;2023-09-19T07:52:50;17.50;99.90
44166;DHT22;30476;53.468;9.826;2023-09-19T07:55:19;17.60;99.90
44166;DHT22;30476;53.468;9.826;2023-09-19T07:57:49;17.50;99.90
44166;DHT22;30476;53.468;9.826;2023-09-19T08:00:15;17.50;99.90
44166;DHT22;30476;53.468;9.826;2023-09-19T08:02:41;17.40;99.90
44166;DHT22;30476;53.468;9.826;2023-09-19T08:05:12;17.40;99.90
44166;DHT22;30476;53.468;9.826;2023-09-19T08:07:42;17.50;99.90
44166;DHT22;30476;53.468;9.826;2023-09-19T08:10:09;17.50;99.90
44166;DHT22;30476;53.468;9.826;2023-09-19T08:12:42;17.60;99.90
44166;DHT22;30476;53.468;9.826;2023-09-19T08:15:16;17.60;99.90
44166;DHT22;30476;53.468;9.826;2023-09-19T08:17:42;17.60;99.90
44166;DHT22;30476;53.468;9.826;2023-09-19T08:20:09;17.60;99.90
44166;DHT22;30476;53.468;9.826;2023-09-19T08:22:49;17.60;99.90
44166;DHT22;30476;53.468;9.826;2023-09-19T08:25:18;17.60;99.90
44166;DHT22;30476;53.468;9.826;2023-09-19T08:27:45;17.60;99.90
44166;DHT22;30476;53.468;9.826;2023-09-19T08:30:18;17.70;99.90
44166;DHT22;30476;53.468;9.826;2023-09-19T08:32:45;17.70;99.90
44166;DHT22;30476;53.468;9.826;2023-09-19T08:35:15;17.70;99.90
44166;DHT22;30476;53.468;9.826;2023-09-19T08:37:42;17.70;99.90
44166;DHT22;30476;53.468;9.826;2023-09-19T08:40:08;17.80;99.90
44166;DHT22;30476;53.468;9.826;2023-09-19T08:42:56;17.80;99.90
44166;DHT22;30476;53.468;9.826;2023-09-19T08:45:24;17.80;99.90
44166;DHT22;30476;53.468;9.826;2023-09-19T08:48:10;17.80;99.90
44166;DHT22;30476;53.468;9.826;2023-09-19T08:50:54;17.90;99.90
44166;DHT22;30476;53.468;9.826;2023-09-19T08:54:12;17.90;99.90
44166;DHT22;30476;53.468;9.826;2023-09-19T08:56:12;17.90;99.90
44166;DHT22;30476;53.468;9.826;2023-09-19T08:59:08;18.00;99.90
44166;DHT22;30476;53.468;9.826;2023-09-19T09:01:37;17.90;99.90
44166;DHT22;30476;53.468;9.826;2023-09-19T09:04:08;17.90;99.90
44166;DHT22;30476;53.468;9.826;2023-09-19T09:06:35;18.10;99.90
44166;DHT22;30476;53.468;9.826;2023-09-19T09:09:02;18.10;99.90
44166;DHT22;30476;53.468;9.826;2023-09-19T09:11:29;18.10;99.90
44166;DHT22;30476;53.468;9.826;2023-09-19T09:13:58;18.20;99.90
44166;DHT22;30476;53.468;9.826;2023-09-19T09:16:24;18.20;99.90
44166;DHT22;30476;53.468;9.826;2023-09-19T09:18:51;18.30;99.90
44166;DHT22;30476;53.468;9.826;2023-09-19T09:21:18;18.30;99.90
44166;DHT22;30476;53.468;9.826;2023-09-19T09:23:44;18.30;99.90
44166;DHT22;30476;53.468;9.826;2023-09-19T09:26:10;18.40;99.90
44166;DHT22;30476;53.468;9.826;2023-09-19T09:28:36;18.50;99.90
44166;DHT22;30476;53.468;9.826;2023-09-19T09:31:22;18.60;99.90
44166;DHT22;30476;53.468;9.826;2023-09-19T09:33:56;18.60;99.90
44166;DHT22;30476;53.468;9.826;2023-09-19T09:36:39;18.60;99.90
44166;DHT22;30476;53.468;9.826;2023-09-19T09:39:07;18.70;99.90
44166;DHT22;30476;53.468;9.826;2023-09-19T09:41:50;18.80;99.90
44166;DHT22;30476;53.468;9.826;2023-09-19T09:44:18;18.80;99.90
44166;DHT22;30476;53.468;9.826;2023-09-19T09:46:48;18.90;99.90
44166;DHT22;30476;53.468;9.826;2023-09-19T09:49:24;19.00;99.90
44166;DHT22;30476;53.468;9.826;2023-09-19T09:52:07;19.00;99.90
44166;DHT22;30476;53.468;9.826;2023-09-19T09:54:34;19.10;99.90
44166;DHT22;30476;53.468;9.826;2023-09-19T09:57:05;19.10;99.90
44166;DHT22;30476;53.468;9.826;2023-09-19T09:59:48;19.20;99.40
44166;DHT22;30476;53.468;9.826;2023-09-19T10:02:20;19.30;99.90
44166;DHT22;30476;53.468;9.826;2023-09-19T10:04:51;19.30;99.90
44166;DHT22;30476;53.468;9.826;2023-09-19T10:07:30;19.40;99.90
44166;DHT22;30476;53.468;9.826;2023-09-19T10:10:15;19.60;99.90
44166;DHT22;30476;53.468;9.826;2023-09-19T10:12:55;19.60;99.90
44166;DHT22;30476;53.468;9.826;2023-09-19T10:15:31;19.70;98.70
44166;DHT22;30476;53.468;9.826;2023-09-19T10:18:00;19.70;98.40
44166;DHT22;30476;53.468;9.826;2023-09-19T10:20:28;19.70;98.20
44166;DHT22;30476;53.468;9.826;2023-09-19T10:23:07;19.70;97.90
44166;DHT22;30476;53.468;9.826;2023-09-19T10:25:42;19.80;98.20
44166;DHT22;30476;53.468;9.826;2023-09-19T10:28:12;19.80;98.30
44166;DHT22;30476;53.468;9.826;2023-09-19T10:30:46;19.80;97.50
44166;DHT22;30476;53.468;9.826;2023-09-19T10:33:14;19.80;97.50
44166;DHT22;30476;53.468;9.826;2023-09-19T10:35:48;19.90;97.40
44166;DHT22;30476;53.468;9.826;2023-09-19T10:38:17;19.90;97.60
44166;DHT22;30476;53.468;9.826;2023-09-19T10:40:48;19.90;97.30
44166;DHT22;30476;53.468;9.826;2023-09-19T10:43:18;19.90;97.80
44166;DHT22;30476;53.468;9.826;2023-09-19T10:45:49;20.00;97.70
44166;DHT22;30476;53.468;9.826;2023-09-19T10:48:18;20.10;98.00
44166;DHT22;30476;53.468;9.826;2023-09-19T10:51:07;20.10;97.40
44166;DHT22;30476;53.468;9.826;2023-09-19T10:53:47;20.10;96.90
44166;DHT22;30476;53.468;9.826;2023-09-19T10:56:29;20.00;97.10
44166;DHT22;30476;53.468;9.826;2023-09-19T10:59:08;20.00;97.00
44166;DHT22;30476;53.468;9.826;2023-09-19T11:01:49;20.00;97.10
44166;DHT22;30476;53.468;9.826;2023-09-19T11:04:45;20.00;96.70
44166;DHT22;30476;53.468;9.826;2023-09-19T11:07:14;20.00;96.80
44166;DHT22;30476;53.468;9.826;2023-09-19T11:09:51;20.00;97.00
44166;DHT22;30476;53.468;9.826;2023-09-19T11:14:55;20.10;96.90
44166;DHT22;30476;53.468;9.826;2023-09-19T11:30:36;20.20;95.40
44166;DHT22;30476;53.468;9.826;2023-09-19T11:33:30;20.20;95.40
44166;DHT22;30476;53.468;9.826;2023-09-19T11:36:07;20.20;95.50
44166;DHT22;30476;53.468;9.826;2023-09-19T11:43:51;20.30;96.00
44166;DHT22;30476;53.468;9.826;2023-09-19T11:46:18;20.30;95.30
44166;DHT22;30476;53.468;9.826;2023-09-19T11:48:51;20.30;95.30
44166;DHT22;30476;53.468;9.826;2023-09-19T11:51:22;20.40;95.80
44166;DHT22;30476;53.468;9.826;2023-09-19T11:53:51;20.40;95.90
44166;DHT22;30476;53.468;9.826;2023-09-19T11:56:22;20.50;95.60
44166;DHT22;30476;53.468;9.826;2023-09-19T11:58:50;20.60;95.70
44166;DHT22;30476;53.468;9.826;2023-09-19T12:01:29;20.70;95.80
44166;DHT22;30476;53.468;9.826;2023-09-19T12:03:57;20.80;95.90
44166;DHT22;30476;53.468;9.826;2023-09-19T12:06:25;20.80;95.70
44166;DHT22;30476;53.468;9.826;2023-09-19T12:08:51;20.90;95.80
44166;DHT22;30476;53.468;9.826;2023-09-19T12:11:21;20.90;95.90
44166;DHT22;30476;53.468;9.826;2023-09-19T12:13:48;20.90;95.20
44166;DHT22;30476;53.468;9.826;2023-09-19T12:16:16;20.90;95.30
44166;DHT22;30476;53.468;9.826;2023-09-19T12:18:46;21.00;95.00
44166;DHT22;30476;53.468;9.826;2023-09-19T12:26:38;21.00;94.60
44166;DHT22;30476;53.468;9.826;2023-09-19T12:29:05;21.00;94.10
44166;DHT22;30476;53.468;9.826;2023-09-19T12:31:31;21.00;94.20
44166;DHT22;30476;53.468;9.826;2023-09-19T12:34:02;21.00;94.30
44166;DHT22;30476;53.468;9.826;2023-09-19T12:36:28;21.00;94.10
44166;DHT22;30476;53.468;9.826;2023-09-19T12:38:59;21.00;94.00
44166;DHT22;30476;53.468;9.826;2023-09-19T12:41:26;21.00;94.10
44166;DHT22;30476;53.468;9.826;2023-09-19T12:43:53;21.10;94.00
44166;DHT22;30476;53.468;9.826;2023-09-19T12:46:21;21.10;93.50
44166;DHT22;30476;53.468;9.826;2023-09-19T12:51:43;21.10;94.10
44166;DHT22;30476;53.468;9.826;2023-09-19T12:54:09;21.20;94.50
44166;DHT22;30476;53.468;9.826;2023-09-19T12:56:41;21.30;94.50
44166;DHT22;30476;53.468;9.826;2023-09-19T12:59:12;21.40;94.10
44166;DHT22;30476;53.468;9.826;2023-09-19T13:01:40;21.50;93.80
44166;DHT22;30476;53.468;9.826;2023-09-19T13:04:15;21.40;93.00
44166;DHT22;30476;53.468;9.826;2023-09-19T13:06:48;21.50;92.90
44166;DHT22;30476;53.468;9.826;2023-09-19T13:09:15;21.40;92.10
44166;DHT22;30476;53.468;9.826;2023-09-19T13:11:42;21.40;92.20
44166;DHT22;30476;53.468;9.826;2023-09-19T13:17:03;21.40;92.30
44166;DHT22;30476;53.468;9.826;2023-09-19T13:19:45;21.40;92.70
44166;DHT22;30476;53.468;9.826;2023-09-19T13:22:41;21.40;92.50
44166;DHT22;30476;53.468;9.826;2023-09-19T13:25:14;21.30;92.20
44166;DHT22;30476;53.468;9.826;2023-09-19T13:28:00;21.30;92.00
44166;DHT22;30476;53.468;9.826;2023-09-19T13:30:30;21.40;92.40
44166;DHT22;30476;53.468;9.826;2023-09-19T13:33:10;21.40;92.50
44166;DHT22;30476;53.468;9.826;2023-09-19T13:35:37;21.40;91.70
44166;DHT22;30476;53.468;9.826;2023-09-19T13:38:05;21.60;91.90
44166;DHT22;30476;53.468;9.826;2023-09-19T13:40:35;21.70;92.00
44166;DHT22;30476;53.468;9.826;2023-09-19T13:43:01;21.90;91.80
44166;DHT22;30476;53.468;9.826;2023-09-19T13:45:27;21.90;91.40
44166;DHT22;30476;53.468;9.826;2023-09-19T13:47:56;22.10;91.20
44166;DHT22;30476;53.468;9.826;2023-09-19T13:50:22;22.20;91.40
44166;DHT22;30476;53.468;9.826;2023-09-19T13:52:52;22.30;91.70
44166;DHT22;30476;53.468;9.826;2023-09-19T13:55:19;22.40;91.80
44166;DHT22;30476;53.468;9.826;2023-09-19T13:57:48;22.50;90.30
44166;DHT22;30476;53.468;9.826;2023-09-19T14:00:20;22.60;90.80
44166;DHT22;30476;53.468;9.826;2023-09-19T14:02:46;22.70;90.10
44166;DHT22;30476;53.468;9.826;2023-09-19T14:05:14;22.70;89.90
44166;DHT22;30476;53.468;9.826;2023-09-19T14:07:42;22.80;90.40
44166;DHT22;30476;53.468;9.826;2023-09-19T14:10:09;22.80;90.30
44166;DHT22;30476;53.468;9.826;2023-09-19T14:12:39;22.90;90.40
44166;DHT22;30476;53.468;9.826;2023-09-19T14:15:09;22.90;90.50
44166;DHT22;30476;53.468;9.826;2023-09-19T14:17:36;22.80;88.90
44166;DHT22;30476;53.468;9.826;2023-09-19T14:20:01;22.80;89.70
44166;DHT22;30476;53.468;9.826;2023-09-19T14:22:27;22.70;89.60
44166;DHT22;30476;53.468;9.826;2023-09-19T14:24:53;22.50;90.00
44166;DHT22;30476;53.468;9.826;2023-09-19T14:27:20;22.50;90.00
44166;DHT22;30476;53.468;9.826;2023-09-19T14:29:46;22.40;90.10
44166;DHT22;30476;53.468;9.826;2023-09-19T14:32:11;22.30;90.60
44166;DHT22;30476;53.468;9.826;2023-09-19T14:34:38;22.20;90.40
44166;DHT22;30476;53.468;9.826;2023-09-19T14:37:08;22.10;90.60
44166;DHT22;30476;53.468;9.826;2023-09-19T14:39:34;22.10;91.00
44166;DHT22;30476;53.468;9.826;2023-09-19T14:42:00;22.10;91.20
44166;DHT22;30476;53.468;9.826;2023-09-19T14:44:25;22.10;91.10
44166;DHT22;30476;53.468;9.826;2023-09-19T14:46:51;22.00;91.30
44166;DHT22;30476;53.468;9.826;2023-09-19T14:49:17;22.00;91.60
44166;DHT22;30476;53.468;9.826;2023-09-19T14:51:43;22.00;91.70
44166;DHT22;30476;53.468;9.826;2023-09-19T14:54:10;21.80;91.80
44166;DHT22;30476;53.468;9.826;2023-09-19T14:56:35;21.80;91.70
44166;DHT22;30476;53.468;9.826;2023-09-19T14:59:01;21.80;91.90
44166;DHT22;30476;53.468;9.826;2023-09-19T15:01:28;21.80;91.90
44166;DHT22;30476;53.468;9.826;2023-09-19T15:03:54;21.70;92.00
44166;DHT22;30476;53.468;9.826;2023-09-19T15:06:21;21.70;92.30
44166;DHT22;30476;53.468;9.826;2023-09-19T15:08:47;21.60;92.20
44166;DHT22;30476;53.468;9.826;2023-09-19T15:11:14;21.60;92.50
44166;DHT22;30476;53.468;9.826;2023-09-19T15:13:42;21.60;92.70
44166;DHT22;30476;53.468;9.826;2023-09-19T15:16:09;21.50;92.60
44166;DHT22;30476;53.468;9.826;2023-09-19T15:18:40;21.50;92.70
44166;DHT22;30476;53.468;9.826;2023-09-19T15:21:08;21.40;92.80
44166;DHT22;30476;53.468;9.826;2023-09-19T15:23:35;21.40;92.90
44166;DHT22;30476;53.468;9.826;2023-09-19T15:26:06;21.40;93.10
44166;DHT22;30476;53.468;9.826;2023-09-19T15:28:32;21.30;93.10
44166;DHT22;30476;53.468;9.826;2023-09-19T15:31:04;21.30;93.30
44166;DHT22;30476;53.468;9.826;2023-09-19T15:33:30;21.30;93.50
44166;DHT22;30476;53.468;9.826;2023-09-19T15:36:04;21.20;93.30
44166;DHT22;30476;53.468;9.826;2023-09-19T15:38:31;21.10;93.50
44166;DHT22;30476;53.468;9.826;2023-09-19T15:41:00;21.10;93.70
44166;DHT22;30476;53.468;9.826;2023-09-19T15:43:25;21.10;93.70
44166;DHT22;30476;53.468;9.826;2023-09-19T15:45:51;21.10;93.70
44166;DHT22;30476;53.468;9.826;2023-09-19T15:48:17;21.10;93.80
44166;DHT22;30476;53.468;9.826;2023-09-19T15:50:44;21.10;93.70
44166;DHT22;30476;53.468;9.826;2023-09-19T15:53:10;21.10;93.80
44166;DHT22;30476;53.468;9.826;2023-09-19T15:55:40;21.00;93.70
44166;DHT22;30476;53.468;9.826;2023-09-19T15:58:07;21.00;93.50
44166;DHT22;30476;53.468;9.826;2023-09-19T16:00:33;20.90;93.70
44166;DHT22;30476;53.468;9.826;2023-09-19T16:03:00;20.90;93.50
44166;DHT22;30476;53.468;9.826;2023-09-19T16:05:27;20.90;93.60
44166;DHT22;30476;53.468;9.826;2023-09-19T16:07:53;20.90;93.70
44166;DHT22;30476;53.468;9.826;2023-09-19T16:10:19;20.80;93.70
44166;DHT22;30476;53.468;9.826;2023-09-19T16:12:46;20.80;93.70
44166;DHT22;30476;53.468;9.826;2023-09-19T16:15:12;20.80;93.80
44166;DHT22;30476;53.468;9.826;2023-09-19T16:17:39;20.70;93.70
44166;DHT22;30476;53.468;9.826;2023-09-19T16:20:06;20.70;93.90
44166;DHT22;30476;53.468;9.826;2023-09-19T16:22:38;20.70;93.90
44166;DHT22;30476;53.468;9.826;2023-09-19T16:25:06;20.70;94.10
44166;DHT22;30476;53.468;9.826;2023-09-19T16:27:32;20.70;94.40